Time;durP1;ratioP1;P1;durP2;ratioP2;P2;SDS_P1;SDS_P2;PMS_P1;PMS_P2;Temp;Humidity;BMP_temperature;BMP_pressure;BME280_temperature;BME280_humidity;BME280_pressure;Samples;Min_cycle;Max_cycle;Signal;HPM_P1;HPM_P2
2023/06/17 00:00:07;;;;;;;11.82;9.50;;;;;;;20.17;98.68;98514.13;5031409;28;20248;-76
2023/06/17 00:02:34;;;;;;;13.90;10.13;;;;;;;20.09;99.72;98515.41;5028459;28;20029;-76
2023/06/17 00:04:59;;;;;;;12.55;9.68;;;;;;;20.06;99.51;98515.03;5029803;28;20033;-77
2023/06/17 00:07:25;;;;;;;14.70;10.43;;;;;;;19.93;99.91;98505.47;5031506;28;20413;-76
2023/06/17 00:09:50;;;;;;;14.63;10.38;;;;;;;20.00;99.25;98504.59;5030712;28;20118;-77
2023/06/17 00:12:16;;;;;;;13.57;10.68;;;;;;;19.88;100.00;98505.88;5031532;28;20096;-76
2023/06/17 00:14:42;;;;;;;12.48;10.00;;;;;;;19.90;100.00;98518.44;5030125;28;20553;-77
2023/06/17 00:17:10;;;;;;;13.13;10.20;;;;;;;19.81;100.00;98509.59;5030267;28;20053;-77
2023/06/17 00:19:37;;;;;;;16.83;10.40;;;;;;;19.73;100.00;98506.03;5023359;28;20025;-77
2023/06/17 00:22:03;;;;;;;14.75;11.27;;;;;;;19.69;100.00;98505.28;5028990;28;20037;-77
2023/06/17 00:24:28;;;;;;;11.82;10.57;;;;;;;19.69;100.00;98510.97;5031243;28;20108;-77
2023/06/17 00:26:54;;;;;;;16.75;10.77;;;;;;;19.61;100.00;98506.56;5031359;28;20036;-77
2023/06/17 00:29:19;;;;;;;17.77;11.43;;;;;;;19.65;100.00;98504.50;5031227;28;20025;-76
2023/06/17 00:31:45;;;;;;;18.45;10.68;;;;;;;19.74;100.00;98506.88;5028151;28;20475;-76
2023/06/17 00:34:10;;;;;;;12.15;10.95;;;;;;;19.68;100.00;98502.84;5031145;28;20037;-77
2023/06/17 00:36:36;;;;;;;13.98;10.68;;;;;;;19.73;100.00;98494.69;5029914;28;20017;-77
2023/06/17 00:39:01;;;;;;;17.98;11.90;;;;;;;19.76;100.00;98498.72;5031060;28;20029;-77
2023/06/17 00:41:27;;;;;;;14.43;10.50;;;;;;;19.74;100.00;98499.13;5030164;28;20033;-76
2023/06/17 00:43:52;;;;;;;16.15;11.75;;;;;;;19.73;100.00;98503.22;5034510;28;20415;-76
2023/06/17 00:46:40;;;;;;;20.85;11.73;;;;;;;19.72;100.00;98500.78;5033363;28;20045;-77
2023/06/17 00:49:11;;;;;;;21.45;11.98;;;;;;;19.67;100.00;98504.09;5032861;28;20411;-77
2023/06/17 00:51:38;;;;;;;25.13;13.35;;;;;;;19.72;100.00;98503.63;5033623;28;20063;-75
2023/06/17 00:54:05;;;;;;;16.95;11.10;;;;;;;19.70;100.00;98492.72;5034989;28;20468;-74
2023/06/17 00:56:33;;;;;;;15.45;11.57;;;;;;;19.67;100.00;98493.56;5034995;28;20021;-74
2023/06/17 00:59:00;;;;;;;15.65;11.55;;;;;;;19.71;100.00;98482.97;5034126;28;20100;-74
2023/06/17 01:01:26;;;;;;;13.20;11.75;;;;;;;19.76;100.00;98495.91;5033010;28;20033;-74
2023/06/17 01:03:56;;;;;;;14.73;12.10;;;;;;;19.78;100.00;98493.44;5034832;28;20080;-74
2023/06/17 01:06:33;;;;;;;16.08;11.55;;;;;;;20.02;100.00;98502.13;5031475;28;20091;-74
2023/06/17 01:09:06;;;;;;;18.40;12.77;;;;;;;20.13;100.00;98499.16;5033472;28;20033;-75
2023/06/17 01:11:34;;;;;;;20.73;13.73;;;;;;;20.22;100.00;98499.44;5034558;28;20092;-74
2023/06/17 01:14:00;;;;;;;13.85;10.98;;;;;;;20.31;100.00;98502.56;5033950;28;20032;-75
2023/06/17 01:16:27;;;;;;;16.60;12.15;;;;;;;20.22;100.00;98510.81;5033172;28;20116;-75
2023/06/17 01:18:53;;;;;;;16.02;11.15;;;;;;;20.20;100.00;98499.84;5033676;28;20057;-75
2023/06/17 01:21:22;;;;;;;14.30;11.35;;;;;;;20.02;100.00;98504.97;5026017;28;20033;-75
2023/06/17 01:23:52;;;;;;;13.63;11.63;;;;;;;19.88;100.00;98508.72;5033182;28;20565;-75
2023/06/17 01:26:19;;;;;;;18.42;11.48;;;;;;;19.78;100.00;98499.91;5034262;28;20029;-75
2023/06/17 01:28:45;;;;;;;12.43;11.13;;;;;;;19.77;100.00;98509.63;5032529;28;20408;-75
2023/06/17 01:31:12;;;;;;;17.80;13.15;;;;;;;19.64;100.00;98491.53;5034211;28;20055;-75
2023/06/17 01:33:41;;;;;;;18.05;13.27;;;;;;;19.73;100.00;98505.22;5033094;28;20531;-75
2023/06/17 01:36:17;;;;;;;20.10;12.68;;;;;;;19.72;100.00;98497.94;5032207;28;20550;-75
2023/06/17 01:38:46;;;;;;;13.95;12.07;;;;;;;19.82;100.00;98501.91;5030677;28;20033;-75
2023/06/17 01:41:40;;;;;;;18.33;13.00;;;;;;;19.80;100.00;98499.50;5033342;28;20057;-75
2023/06/17 01:44:07;;;;;;;14.18;12.68;;;;;;;19.79;100.00;98492.22;5028526;28;20052;-75
2023/06/17 01:46:34;;;;;;;14.23;12.27;;;;;;;19.69;100.00;98488.25;5032680;28;20063;-75
2023/06/17 01:49:00;;;;;;;19.10;14.07;;;;;;;19.68;100.00;98498.00;5031033;28;20030;-75
2023/06/17 01:51:26;;;;;;;20.65;12.95;;;;;;;19.63;100.00;98504.94;5032018;28;20545;-75
2023/06/17 01:53:52;;;;;;;20.63;12.95;;;;;;;19.59;100.00;98497.69;5032350;28;20419;-75
2023/06/17 01:56:17;;;;;;;16.88;13.50;;;;;;;19.73;100.00;98503.22;5026898;28;20033;-75
2023/06/17 01:58:43;;;;;;;23.17;13.82;;;;;;;19.88;100.00;98508.72;5028113;28;20029;-75
2023/06/17 02:01:08;;;;;;;18.15;13.55;;;;;;;19.96;100.00;98504.63;5032575;28;20041;-75
2023/06/17 02:03:34;;;;;;;15.77;13.35;;;;;;;20.06;100.00;98506.53;5032540;28;20110;-75
2023/06/17 02:05:59;;;;;;;20.75;13.75;;;;;;;20.14;100.00;98506.44;5031622;28;20052;-75
2023/06/17 02:08:26;;;;;;;19.92;14.48;;;;;;;20.03;100.00;98501.72;5032448;28;20033;-75
2023/06/17 02:10:52;;;;;;;24.88;13.48;;;;;;;20.04;100.00;98502.50;5031630;28;20032;-75
2023/06/17 02:13:17;;;;;;;19.13;13.38;;;;;;;20.01;100.00;98498.47;5032350;28;20034;-75
2023/06/17 02:15:43;;;;;;;19.92;14.80;;;;;;;19.99;100.00;98506.59;5033458;28;20033;-75
2023/06/17 02:18:09;;;;;;;19.58;15.07;;;;;;;19.96;100.00;98496.09;5028765;28;20053;-75
2023/06/17 02:20:35;;;;;;;22.00;13.88;;;;;;;19.92;100.00;98498.16;5032491;28;20038;-75
2023/06/17 02:23:00;;;;;;;18.67;12.77;;;;;;;20.00;100.00;98494.03;5032812;28;20025;-76
2023/06/17 02:25:26;;;;;;;20.08;14.70;;;;;;;19.87;100.00;98490.09;5033279;28;20025;-75
2023/06/17 02:27:52;;;;;;;18.58;12.90;;;;;;;19.91;100.00;98496.56;5032756;28;20029;-75
2023/06/17 02:30:17;;;;;;;18.73;13.07;;;;;;;19.81;100.00;98495.41;5030435;28;20033;-75
2023/06/17 02:32:43;;;;;;;17.25;13.80;;;;;;;19.92;100.00;98487.63;5033161;28;20032;-75
2023/06/17 02:35:10;;;;;;;18.73;13.82;;;;;;;19.92;100.00;98486.81;5031903;28;20063;-76
2023/06/17 02:37:36;;;;;;;20.80;13.85;;;;;;;20.05;100.00;98485.06;5029322;28;20044;-76
2023/06/17 02:40:06;;;;;;;18.80;14.38;;;;;;;20.05;100.00;98484.25;5014799;28;20033;-76
2023/06/17 02:42:31;;;;;;;18.70;13.85;;;;;;;19.89;100.00;98473.44;5013209;28;20033;-76
2023/06/17 02:44:57;;;;;;;15.00;12.68;;;;;;;19.87;100.00;98476.72;5012769;28;20029;-76
2023/06/17 02:47:22;;;;;;;26.38;14.52;;;;;;;19.95;100.00;98480.31;5032512;28;20554;-76
2023/06/17 02:49:47;;;;;;;20.35;13.45;;;;;;;20.04;100.00;98489.13;5031631;28;20546;-75
2023/06/17 02:52:13;;;;;;;19.15;14.50;;;;;;;20.04;100.00;98479.78;5026737;28;20026;-76
2023/06/17 02:54:38;;;;;;;15.23;13.52;;;;;;;20.17;100.00;98483.69;5032493;28;20030;-76
2023/06/17 02:57:04;;;;;;;20.58;14.57;;;;;;;20.25;100.00;98486.44;5032693;28;20022;-76
2023/06/17 02:59:33;;;;;;;20.00;13.82;;;;;;;20.32;100.00;98486.34;5031027;28;20072;-76
2023/06/17 03:01:59;;;;;;;18.00;13.00;;;;;;;20.27;100.00;98490.47;5029830;28;20108;-76
2023/06/17 03:04:25;;;;;;;18.65;13.00;;;;;;;20.28;100.00;98479.91;5031950;28;20025;-75
2023/06/17 03:06:53;;;;;;;16.80;13.40;;;;;;;20.39;100.00;98486.25;5030703;28;20108;-75
2023/06/17 03:09:19;;;;;;;15.57;13.80;;;;;;;20.31;100.00;98479.88;5031872;28;20033;-76
2023/06/17 03:11:45;;;;;;;18.55;12.75;;;;;;;20.33;100.00;98485.91;5028719;28;20028;-76
2023/06/17 03:14:10;;;;;;;21.77;14.27;;;;;;;20.36;100.00;98491.97;5032520;28;20029;-75
2023/06/17 03:16:38;;;;;;;19.20;14.75;;;;;;;20.40;100.00;98487.06;5030890;28;20352;-76
2023/06/17 03:19:03;;;;;;;19.13;14.18;;;;;;;20.39;100.00;98493.94;5028838;28;20052;-76
2023/06/17 03:21:30;;;;;;;21.02;13.68;;;;;;;20.38;100.00;98501.69;5031130;28;20492;-75
2023/06/17 03:23:59;;;;;;;15.07;13.05;;;;;;;20.33;100.00;98500.13;5030995;28;20345;-75
2023/06/17 03:26:25;;;;;;;17.27;13.98;;;;;;;20.26;100.00;98505.09;5030713;28;20029;-75
2023/06/17 03:28:52;;;;;;;21.05;13.30;;;;;;;20.26;100.00;98505.88;5030181;28;20025;-76
2023/06/17 03:31:20;;;;;;;16.88;13.82;;;;;;;20.37;100.00;98504.94;5025039;28;20022;-76
2023/06/17 03:33:48;;;;;;;15.35;12.93;;;;;;;20.30;100.00;98498.13;5022743;28;20126;-76
2023/06/17 03:36:13;;;;;;;17.75;13.15;;;;;;;20.33;100.00;98504.97;5028504;28;20481;-76
2023/06/17 03:38:39;;;;;;;16.98;12.85;;;;;;;20.33;100.00;98507.81;5029821;28;20029;-76
2023/06/17 03:41:04;;;;;;;18.63;13.77;;;;;;;20.12;100.00;98514.56;5030612;28;20420;-76
2023/06/17 03:43:30;;;;;;;16.95;13.18;;;;;;;20.05;100.00;98513.44;5030027;28;20044;-76
2023/06/17 03:45:55;;;;;;;19.50;13.68;;;;;;;19.80;100.00;98521.41;5030540;28;20028;-73
2023/06/17 03:48:21;;;;;;;22.40;14.85;;;;;;;19.77;100.00;98523.81;5029844;28;20025;-75
2023/06/17 03:50:47;;;;;;;19.38;15.32;;;;;;;19.72;100.00;98512.94;5030275;28;20045;-75
2023/06/17 03:53:13;;;;;;;19.27;14.25;;;;;;;19.39;100.00;98525.81;5031045;28;20483;-76
2023/06/17 03:55:39;;;;;;;23.33;16.40;;;;;;;18.89;100.00;98519.28;5030703;28;20032;-75
2023/06/17 03:58:04;;;;;;;21.08;16.33;;;;;;;19.07;100.00;98527.69;5031021;28;20021;-75
2023/06/17 04:00:30;;;;;;;20.40;14.68;;;;;;;19.41;100.00;98517.69;5045476;28;20446;-75
2023/06/17 04:02:56;;;;;;;17.70;15.13;;;;;;;19.55;100.00;98511.91;5029244;28;20029;-76
2023/06/17 04:05:21;;;;;;;23.80;14.88;;;;;;;19.66;100.00;98505.31;5028892;28;20067;-73
2023/06/17 04:07:48;;;;;;;22.80;14.60;;;;;;;19.68;100.00;98511.38;5031480;28;20511;-73
2023/06/17 04:10:14;;;;;;;20.55;15.10;;;;;;;19.72;100.00;98515.78;5024553;28;20451;-75
2023/06/17 04:12:42;;;;;;;26.10;15.85;;;;;;;19.81;100.00;98509.59;5029246;28;20117;-75
2023/06/17 04:15:08;;;;;;;18.60;14.98;;;;;;;19.83;100.00;98506.34;5030570;28;20484;-75
2023/06/17 04:17:36;;;;;;;26.10;15.80;;;;;;;19.90;100.00;98514.78;5030806;28;20053;-75
2023/06/17 04:20:10;;;;;;;20.00;15.70;;;;;;;19.88;100.00;98520.06;5028174;28;20048;-75
2023/06/17 04:22:37;;;;;;;21.13;13.85;;;;;;;19.99;100.00;98525.69;5029459;28;20069;-76
2023/06/17 04:25:03;;;;;;;22.42;14.73;;;;;;;19.96;100.00;98521.66;5030038;28;20044;-74
2023/06/17 04:27:29;;;;;;;20.95;15.93;;;;;;;19.92;100.00;98523.69;5029483;28;20463;-76
2023/06/17 04:29:56;;;;;;;25.35;15.27;;;;;;;19.96;100.00;98533.00;5023609;28;20108;-77
2023/06/17 04:32:24;;;;;;;22.92;16.15;;;;;;;19.86;100.00;98533.88;5026460;28;20031;-76
2023/06/17 04:34:50;;;;;;;33.28;18.65;;;;;;;19.67;100.00;98538.94;5030257;28;20487;-75
2023/06/17 04:37:16;;;;;;;29.73;18.67;;;;;;;19.44;100.00;98546.03;5027938;28;20049;-76
2023/06/17 04:39:42;;;;;;;26.92;18.13;;;;;;;19.34;100.00;98552.59;5027137;28;20041;-76
2023/06/17 04:42:12;;;;;;;28.85;18.23;;;;;;;19.59;100.00;98560.06;5020768;28;20187;-76
2023/06/17 04:44:38;;;;;;;24.10;17.52;;;;;;;19.52;100.00;98566.63;5025190;28;20029;-76
2023/06/17 04:47:06;;;;;;;28.90;19.25;;;;;;;19.39;100.00;98571.97;5024827;28;20025;-76
2023/06/17 04:49:38;;;;;;;26.55;20.35;;;;;;;19.02;100.00;98571.44;5028079;28;20526;-75
2023/06/17 04:52:05;;;;;;;29.02;22.65;;;;;;;19.20;100.00;98587.50;5026432;28;20481;-75
2023/06/17 04:54:31;;;;;;;27.63;22.33;;;;;;;19.19;100.00;98583.88;5026396;28;20084;-74
2023/06/17 04:59:37;;;;;;;28.00;21.13;;;;;;;19.19;100.00;98591.56;2753109;22;21602;-73
2023/06/17 05:02:03;;;;;;;29.95;23.02;;;;;;;19.12;100.00;98588.78;5038814;28;20052;-72
2023/06/17 05:04:29;;;;;;;37.83;23.15;;;;;;;18.88;100.00;98586.47;5055637;28;20028;-72
2023/06/17 05:06:55;;;;;;;33.38;23.55;;;;;;;18.90;100.00;98584.00;5054080;28;20024;-72
2023/06/17 05:09:20;;;;;;;29.77;22.30;;;;;;;18.85;100.00;98598.63;5041845;28;20490;-74
2023/06/17 05:11:46;;;;;;;34.72;23.85;;;;;;;18.71;100.00;98604.38;5043670;28;20024;-72
2023/06/17 05:14:11;;;;;;;41.35;23.90;;;;;;;18.75;100.00;98597.44;5049201;28;20031;-75
2023/06/17 05:16:37;;;;;;;33.70;22.50;;;;;;;18.66;100.00;98602.78;5048631;28;20418;-75
2023/06/17 05:19:02;;;;;;;38.88;24.52;;;;;;;18.60;100.00;98605.22;5041238;28;20023;-74
2023/06/17 05:21:28;;;;;;;32.42;22.40;;;;;;;18.73;100.00;98602.72;5055239;28;20422;-74
2023/06/17 05:23:53;;;;;;;25.92;22.17;;;;;;;18.85;100.00;98601.47;5056354;28;20039;-77
2023/06/17 05:26:18;;;;;;;33.13;22.83;;;;;;;18.94;100.00;98616.00;5065434;28;20040;-73
2023/06/17 05:28:44;;;;;;;30.45;23.25;;;;;;;18.86;100.00;98608.75;5070115;28;20039;-76
2023/06/17 05:34:31;;;;;;;29.58;22.08;;;;;;;18.81;100.00;98614.81;5379619;22;20052;-94
2023/06/17 05:36:57;;;;;;;28.92;22.23;;;;;;;18.75;100.00;98624.97;5057778;28;20111;-93
2023/06/17 05:39:22;;;;;;;37.97;23.95;;;;;;;18.62;100.00;98619.78;5066999;28;20024;-89
2023/06/17 05:41:48;;;;;;;37.10;23.58;;;;;;;18.60;100.00;98616.53;5028505;28;20531;-92
2023/06/17 05:44:13;;;;;;;32.33;22.77;;;;;;;18.72;100.00;98620.94;5037355;28;20025;-90
2023/06/17 05:46:39;;;;;;;34.53;23.70;;;;;;;18.60;100.00;98612.91;5054356;28;20028;-90
2023/06/17 05:49:04;;;;;;;37.90;23.65;;;;;;;18.69;100.00;98624.59;5053437;28;20459;-91
2023/06/17 05:51:30;;;;;;;28.55;23.05;;;;;;;18.81;100.00;98620.47;5049013;28;20021;-90
2023/06/17 05:53:55;;;;;;;27.67;22.73;;;;;;;18.65;100.00;98618.16;5054013;28;20063;-92
2023/06/17 05:56:21;;;;;;;35.28;27.13;;;;;;;19.00;100.00;98624.06;5037547;28;20023;-91
2023/06/17 05:58:46;;;;;;;31.35;23.38;;;;;;;18.93;100.00;98625.69;5037656;28;20028;-92
2023/06/17 06:01:12;;;;;;;32.42;24.95;;;;;;;18.85;100.00;98626.13;5036527;28;20123;-90
2023/06/17 06:03:37;;;;;;;31.60;21.80;;;;;;;18.96;100.00;98640.25;5052065;28;20060;-91
2023/06/17 06:06:03;;;;;;;34.22;21.10;;;;;;;18.79;100.00;98639.91;5037497;28;20146;-90
2023/06/17 06:08:28;;;;;;;30.00;22.15;;;;;;;18.92;100.00;98643.91;5038970;28;20059;-91
2023/06/17 06:10:54;;;;;;;33.53;21.98;;;;;;;19.01;100.00;98645.53;5046486;28;20009;-89
2023/06/17 06:13:20;;;;;;;44.92;21.38;;;;;;;18.88;100.00;98640.28;5053909;28;20517;-90
2023/06/17 06:15:46;;;;;;;29.52;20.25;;;;;;;18.78;100.00;98641.97;5047659;28;20039;-91
2023/06/17 06:18:12;;;;;;;28.27;20.45;;;;;;;19.07;100.00;98660.88;5036727;28;20430;-90
2023/06/17 06:20:38;;;;;;;27.50;21.90;;;;;;;19.08;100.00;98665.34;5036725;28;20090;-91
2023/06/17 06:23:03;;;;;;;27.75;21.15;;;;;;;18.97;100.00;98644.72;5037371;28;20025;-89
2023/06/17 06:25:29;;;;;;;26.55;20.77;;;;;;;19.03;100.00;98646.72;5048397;28;20061;-90
2023/06/17 06:27:54;;;;;;;27.13;18.85;;;;;;;19.27;100.00;98654.69;5036505;28;20036;-90
2023/06/17 06:30:20;;;;;;;29.20;21.48;;;;;;;19.45;100.00;98658.22;5035905;28;20052;-90
2023/06/17 06:32:45;;;;;;;26.80;21.02;;;;;;;19.20;100.00;98653.53;5048607;28;20040;-90
2023/06/17 06:35:11;;;;;;;35.33;21.67;;;;;;;19.12;100.00;98642.63;5035808;28;20609;-93
2023/06/17 06:37:36;;;;;;;23.88;15.55;;;;;;;19.39;100.00;98671.22;5038070;28;20017;-93
2023/06/17 06:40:05;;;;;;;18.77;14.60;;;;;;;19.25;100.00;98659.97;5054265;28;20024;-94
2023/06/17 06:42:31;;;;;;;19.55;14.57;;;;;;;19.17;100.00;98648.66;5037185;28;20028;-93
2023/06/17 06:44:56;;;;;;;20.33;15.75;;;;;;;19.27;100.00;98664.00;5037675;28;20020;-94
2023/06/17 06:47:22;;;;;;;24.05;15.23;;;;;;;19.14;100.00;98660.81;5041897;28;20059;-96
2023/06/17 06:50:01;;;;;;;23.55;16.90;;;;;;;18.89;100.00;98624.13;5051796;28;20059;-96
2023/06/17 06:52:26;;;;;;;23.80;14.68;;;;;;;19.27;100.00;98654.69;5063010;23;20357;-77
2023/06/17 06:54:52;;;;;;;18.70;15.38;;;;;;;19.35;100.00;98665.56;5045036;28;20062;-74
2023/06/17 06:57:17;;;;;;;21.65;15.32;;;;;;;19.37;100.00;98656.66;5061212;28;20020;-76
2023/06/17 06:59:43;;;;;;;20.45;15.35;;;;;;;19.31;100.00;98661.94;5045713;28;20516;-77
2023/06/17 07:02:11;;;;;;;21.67;16.08;;;;;;;19.49;100.00;98658.19;5066263;28;20483;-76
2023/06/17 07:04:36;;;;;;;22.10;16.67;;;;;;;19.55;100.00;98664.22;5065672;28;20463;-77
2023/06/17 07:07:02;;;;;;;24.10;17.20;;;;;;;19.44;100.00;98656.63;5067605;28;20024;-76
2023/06/17 07:09:28;;;;;;;23.35;18.35;;;;;;;19.34;100.00;98658.28;5055560;28;20036;-76
2023/06/17 07:11:53;;;;;;;26.17;20.48;;;;;;;19.47;100.00;98657.78;5040195;28;20032;-76
2023/06/17 07:14:19;;;;;;;23.58;19.60;;;;;;;19.44;100.00;98659.44;5055263;28;20033;-77
2023/06/17 07:16:45;;;;;;;26.75;20.65;;;;;;;19.49;100.00;98659.00;5066877;28;20032;-76
2023/06/17 07:19:10;;;;;;;28.13;19.38;;;;;;;19.72;100.00;98654.78;5047719;28;20032;-75
2023/06/17 07:21:35;;;;;;;27.38;22.23;;;;;;;19.54;100.00;98660.59;5067393;28;20433;-77
2023/06/17 07:24:01;;;;;;;28.52;23.08;;;;;;;19.61;100.00;98662.56;5070397;28;20426;-74
2023/06/17 07:26:26;;;;;;;22.05;19.38;;;;;;;19.69;100.00;98664.13;5071105;28;20024;-74
2023/06/17 07:28:52;;;;;;;28.00;19.88;;;;;;;19.70;100.00;98656.41;5067137;28;20423;-74
2023/06/17 07:31:17;;;;;;;22.95;17.95;;;;;;;19.51;100.00;98661.44;5047563;28;20126;-75
2023/06/17 07:33:43;;;;;;;23.63;17.85;;;;;;;19.78;100.00;98655.13;5051749;28;20166;-75
2023/06/17 07:36:08;;;;;;;23.42;18.92;;;;;;;19.80;100.00;98651.91;5056985;28;20525;-76
2023/06/17 07:38:34;;;;;;;25.38;18.25;;;;;;;19.82;100.00;98658.75;5049191;28;20032;-76
2023/06/17 07:41:00;;;;;;;26.00;19.77;;;;;;;19.86;100.00;98656.69;5061712;28;20032;-76
2023/06/17 07:43:26;;;;;;;24.83;18.35;;;;;;;19.92;100.00;98657.06;5033031;28;20021;-75
2023/06/17 07:45:52;;;;;;;24.25;19.42;;;;;;;19.99;100.00;98661.91;5021154;28;20035;-75
2023/06/17 07:48:17;;;;;;;21.67;19.00;;;;;;;19.75;100.00;98659.59;5046224;28;20037;-75
2023/06/17 07:50:43;;;;;;;25.08;20.50;;;;;;;19.73;100.00;98662.06;5045231;28;20040;-75
2023/06/17 07:53:09;;;;;;;26.52;19.15;;;;;;;19.94;100.00;98659.50;5047653;28;20057;-73
2023/06/17 07:55:34;;;;;;;23.52;18.38;;;;;;;20.20;100.00;98658.03;5050243;28;20196;-75
2023/06/17 07:58:00;;;;;;;24.63;18.63;;;;;;;20.18;100.00;98666.19;5045562;28;20017;-75
2023/06/17 08:00:26;;;;;;;23.95;18.80;;;;;;;20.03;100.00;98669.16;5045042;28;20029;-75
2023/06/17 08:02:52;;;;;;;22.73;19.10;;;;;;;20.08;100.00;98661.41;5042678;28;20399;-75
2023/06/17 08:05:17;;;;;;;24.27;20.67;;;;;;;20.08;100.00;98664.25;5028435;28;20028;-77
2023/06/17 08:07:43;;;;;;;22.75;18.55;;;;;;;20.22;100.00;98658.41;5031380;28;20200;-76
2023/06/17 08:10:09;;;;;;;25.27;18.02;;;;;;;20.28;100.00;98667.28;5054393;28;20047;-76
2023/06/17 08:12:34;;;;;;;20.73;16.90;;;;;;;20.14;100.00;98668.22;5028524;28;20094;-75
2023/06/17 08:15:00;;;;;;;18.73;16.02;;;;;;;20.03;100.00;98674.00;5052584;28;21783;-77
2023/06/17 08:17:25;;;;;;;21.13;16.20;;;;;;;20.01;100.00;98667.94;5035920;28;20411;-75
2023/06/17 08:19:51;;;;;;;18.75;15.75;;;;;;;20.04;100.00;98665.09;5049859;28;20453;-75
2023/06/17 08:22:16;;;;;;;18.65;15.65;;;;;;;19.87;100.00;98669.66;5049379;28;20458;-77
2023/06/17 08:24:42;;;;;;;17.25;14.73;;;;;;;19.83;100.00;98662.41;5032460;28;20053;-77
2023/06/17 08:27:09;;;;;;;24.20;15.80;;;;;;;19.86;100.00;98665.22;5037845;28;20025;-78
2023/06/17 08:29:35;;;;;;;18.60;13.60;;;;;;;19.95;100.00;98672.44;5043331;28;20044;-78
2023/06/17 08:32:01;;;;;;;14.50;12.75;;;;;;;19.82;100.00;98669.31;5050025;28;20025;-78
2023/06/17 08:34:30;;;;;;;18.70;13.82;;;;;;;19.66;100.00;98656.44;5043261;28;20213;-75
2023/06/17 08:36:56;;;;;;;18.40;14.95;;;;;;;19.79;100.00;98659.59;5044490;28;20039;-76
2023/06/17 08:39:22;;;;;;;23.35;14.38;;;;;;;19.94;100.00;98656.66;5038365;28;20033;-77
2023/06/17 08:41:47;;;;;;;16.80;13.05;;;;;;;19.95;100.00;98664.75;5046490;28;20067;-74
2023/06/17 08:44:13;;;;;;;18.52;13.80;;;;;;;20.04;100.00;98664.25;5052311;28;20029;-75
2023/06/17 08:46:41;;;;;;;20.27;13.68;;;;;;;20.19;100.00;98670.63;5045152;28;20025;-75
2023/06/17 08:49:07;;;;;;;17.20;12.45;;;;;;;20.30;100.00;98662.81;5032861;28;20031;-77
2023/06/17 08:51:34;;;;;;;15.57;12.68;;;;;;;20.14;100.00;98654.03;5025843;28;20548;-78
2023/06/17 08:54:00;;;;;;;16.98;12.57;;;;;;;20.23;100.00;98657.19;5038134;28;20044;-76
2023/06/17 08:56:26;;;;;;;17.90;13.20;;;;;;;20.14;100.00;98654.84;5047296;28;20025;-78
2023/06/17 08:58:54;;;;;;;23.02;14.00;;;;;;;20.19;100.00;98662.09;5030903;28;20024;-77
2023/06/17 09:01:21;;;;;;;18.63;13.55;;;;;;;20.10;100.00;98662.59;5048463;28;20056;-77
2023/06/17 09:03:50;;;;;;;17.23;13.63;;;;;;;19.92;100.00;98662.72;5024427;28;20025;-74
2023/06/17 09:06:25;;;;;;;22.02;14.93;;;;;;;19.91;100.00;98681.78;5039629;28;20095;-75
2023/06/17 09:08:52;;;;;;;19.15;14.95;;;;;;;19.94;100.00;98670.84;5052563;28;20040;-75
2023/06/17 09:11:21;;;;;;;16.33;14.13;;;;;;;19.92;100.00;98672.06;5044699;28;20017;-80
2023/06/17 09:13:50;;;;;;;17.48;14.30;;;;;;;19.72;100.00;98671.78;5047793;28;20108;-79
2023/06/17 09:16:26;;;;;;;20.30;13.50;;;;;;;19.70;100.00;98674.25;5046885;28;20061;-78
2023/06/17 09:18:56;;;;;;;22.63;14.80;;;;;;;20.02;100.00;98678.06;5053707;28;20431;-76
2023/06/17 09:21:23;;;;;;;20.08;14.07;;;;;;;20.18;100.00;98683.22;5034049;28;20033;-74
2023/06/17 09:23:59;;;;;;;23.08;16.05;;;;;;;20.44;100.00;98683.75;5053101;28;20043;-77
2023/06/17 09:26:28;;;;;;;21.10;15.95;;;;;;;20.39;100.00;98684.19;5034815;28;20036;-78
2023/06/17 09:28:53;;;;;;;21.20;13.00;;;;;;;20.45;100.00;98679.69;5053932;28;20521;-75
2023/06/17 09:31:19;;;;;;;22.45;16.08;;;;;;;20.45;100.00;98688.22;5034248;28;20017;-76
2023/06/17 09:33:45;;;;;;;17.90;13.27;;;;;;;20.15;100.00;98689.69;5054063;28;20406;-76
2023/06/17 09:36:11;;;;;;;15.00;13.43;;;;;;;20.12;100.00;98694.22;5048129;28;20061;-75
2023/06/17 09:38:38;;;;;;;20.20;15.00;;;;;;;20.28;100.00;98690.00;5043867;28;20576;-75
2023/06/17 09:41:04;;;;;;;17.85;14.93;;;;;;;20.10;100.00;98701.53;5044665;28;20029;-77
2023/06/17 09:43:30;;;;;;;17.58;14.18;;;;;;;20.05;100.00;98699.94;5045317;28;20025;-76
2023/06/17 09:46:02;;;;;;;18.05;15.18;;;;;;;20.04;100.00;98699.16;5046901;28;20021;-77
2023/06/17 09:48:34;;;;;;;17.05;12.35;;;;;;;19.91;97.81;98698.00;5033903;28;20043;-76
2023/06/17 09:51:00;;;;;;;14.25;12.50;;;;;;;20.11;98.79;98701.13;5050903;28;20032;-76
2023/06/17 09:53:27;;;;;;;16.88;11.75;;;;;;;20.28;97.62;98690.81;5046680;28;20289;-77
2023/06/17 09:55:57;;;;;;;14.57;11.98;;;;;;;20.48;97.93;98693.84;5023140;28;20454;-76
2023/06/17 09:58:30;;;;;;;14.45;12.48;;;;;;;20.51;95.32;98697.88;5048136;28;20029;-80
2023/06/17 10:01:01;;;;;;;13.52;11.27;;;;;;;20.70;93.86;98682.25;5042081;28;20029;-78
2023/06/17 10:03:29;;;;;;;21.73;11.57;;;;;;;20.84;93.51;98691.88;5044709;28;20020;-77
2023/06/17 10:06:00;;;;;;;16.75;12.25;;;;;;;20.95;93.24;98697.41;5045149;28;20025;-77
2023/06/17 10:08:27;;;;;;;15.25;11.63;;;;;;;21.16;92.25;98697.16;5031019;28;20027;-77
2023/06/17 10:10:57;;;;;;;14.57;11.57;;;;;;;21.24;90.72;98697.06;5049859;28;20025;-77
2023/06/17 10:13:25;;;;;;;14.05;10.80;;;;;;;21.09;92.37;98697.22;5042161;28;20545;-77
2023/06/17 10:15:51;;;;;;;12.55;10.85;;;;;;;21.10;89.49;98704.53;5049443;28;20517;-77
2023/06/17 10:18:18;;;;;;;15.65;10.80;;;;;;;21.25;89.33;98698.69;5048291;28;20025;-77
2023/06/17 10:20:45;;;;;;;16.02;10.30;;;;;;;21.49;87.52;98704.44;5050227;28;20021;-77
2023/06/17 10:23:11;;;;;;;11.95;10.23;;;;;;;21.20;87.01;98696.28;5030076;28;20410;-77
2023/06/17 10:25:40;;;;;;;16.63;10.27;;;;;;;21.06;88.51;98697.28;5024084;28;20043;-77
2023/06/17 10:28:05;;;;;;;10.93;9.77;;;;;;;21.26;88.08;98695.38;5018743;28;20086;-77
2023/06/17 10:30:32;;;;;;;13.43;10.35;;;;;;;21.05;85.60;98696.47;5032238;28;20029;-77
2023/06/17 10:33:01;;;;;;;13.55;9.95;;;;;;;21.27;86.84;98704.75;5048993;28;20028;-77
2023/06/17 10:35:44;;;;;;;13.70;10.15;;;;;;;21.21;85.29;98695.06;5031864;28;20029;-78
2023/06/17 10:38:27;;;;;;;14.10;10.35;;;;;;;21.45;84.43;98705.28;5042260;28;20045;-77
2023/06/17 10:40:53;;;;;;;12.90;9.93;;;;;;;21.21;85.88;98695.06;5030364;28;20032;-77
2023/06/17 10:43:20;;;;;;;13.40;9.98;;;;;;;21.21;86.59;98686.53;5047411;28;20407;-77
2023/06/17 10:45:56;;;;;;;12.57;9.05;;;;;;;20.90;87.36;98688.16;5048098;28;20043;-77
2023/06/17 10:48:23;;;;;;;11.57;9.80;;;;;;;20.97;87.10;98694.94;5043166;28;20060;-77
2023/06/17 10:50:56;;;;;;;13.45;10.57;;;;;;;21.18;88.00;98683.31;5025331;28;20025;-78
2023/06/17 10:53:27;;;;;;;12.98;10.20;;;;;;;21.17;85.86;98686.56;5043631;28;20589;-77
2023/06/17 10:55:52;;;;;;;12.45;10.95;;;;;;;21.09;89.21;98685.06;5050805;28;20108;-77
2023/06/17 10:58:18;;;;;;;15.10;11.65;;;;;;;21.05;89.23;98682.28;5066727;28;20112;-77
2023/06/17 11:00:44;;;;;;;17.90;11.55;;;;;;;21.08;87.59;98687.09;5023274;28;20501;-77
2023/06/17 11:03:09;;;;;;;18.42;12.23;;;;;;;20.88;91.10;98687.75;5029679;28;20033;-78
2023/06/17 11:05:35;;;;;;;13.38;10.68;;;;;;;20.94;87.66;98698.66;5043956;28;20029;-78
2023/06/17 11:08:05;;;;;;;17.45;10.63;;;;;;;20.95;88.34;98689.72;5027251;28;20078;-77
2023/06/17 11:10:31;;;;;;;13.75;11.25;;;;;;;21.22;85.77;98690.97;5031561;28;20033;-77
2023/06/17 11:12:57;;;;;;;9.63;7.93;;;;;;;21.26;83.05;98692.53;5031834;28;20516;-78
2023/06/17 11:15:23;;;;;;;11.23;8.13;;;;;;;21.18;82.61;98693.91;5045846;28;20025;-77